sensor_id;sensor_type;location;lat;lon;timestamp;temperature;humidity
10336;DHT22;5213;53.548;9.930;2024-01-25T00:00:32;6.40;99.90
10336;DHT22;5213;53.548;9.930;2024-01-25T00:02:58;6.60;99.90
10336;DHT22;5213;53.548;9.930;2024-01-25T00:05:23;6.30;99.90
10336;DHT22;5213;53.548;9.930;2024-01-25T00:07:49;6.40;99.90
10336;DHT22;5213;53.548;9.930;2024-01-25T00:10:16;6.50;99.90
10336;DHT22;5213;53.548;9.930;2024-01-25T00:12:42;6.50;99.90
10336;DHT22;5213;53.548;9.930;2024-01-25T00:15:09;6.30;99.90
10336;DHT22;5213;53.548;9.930;2024-01-25T00:17:35;6.50;99.90
10336;DHT22;5213;53.548;9.930;2024-01-25T00:20:01;6.20;99.90
10336;DHT22;5213;53.548;9.930;2024-01-25T00:22:26;6.20;99.90
10336;DHT22;5213;53.548;9.930;2024-01-25T00:24:52;6.20;99.90
10336;DHT22;5213;53.548;9.930;2024-01-25T00:27:17;6.10;99.90
10336;DHT22;5213;53.548;9.930;2024-01-25T00:29:43;6.20;99.90
10336;DHT22;5213;53.548;9.930;2024-01-25T00:32:09;6.20;99.90
10336;DHT22;5213;53.548;9.930;2024-01-25T00:34:35;6.50;99.90
10336;DHT22;5213;53.548;9.930;2024-01-25T00:37:01;6.30;99.90
10336;DHT22;5213;53.548;9.930;2024-01-25T00:39:26;6.40;99.90
10336;DHT22;5213;53.548;9.930;2024-01-25T00:42:06;6.40;99.90
10336;DHT22;5213;53.548;9.930;2024-01-25T00:44:32;6.30;99.90
10336;DHT22;5213;53.548;9.930;2024-01-25T00:46:58;6.30;99.90
10336;DHT22;5213;53.548;9.930;2024-01-25T00:49:24;6.40;99.90
10336;DHT22;5213;53.548;9.930;2024-01-25T00:51:50;6.40;99.90
10336;DHT22;5213;53.548;9.930;2024-01-25T00:54:19;6.40;99.90
10336;DHT22;5213;53.548;9.930;2024-01-25T00:56:45;6.50;99.90
10336;DHT22;5213;53.548;9.930;2024-01-25T00:59:10;6.60;99.90
10336;DHT22;5213;53.548;9.930;2024-01-25T01:01:36;6.60;99.90
10336;DHT22;5213;53.548;9.930;2024-01-25T01:04:02;6.70;99.90
10336;DHT22;5213;53.548;9.930;2024-01-25T01:06:28;6.70;99.90
10336;DHT22;5213;53.548;9.930;2024-01-25T01:08:54;6.80;99.90
10336;DHT22;5213;53.548;9.930;2024-01-25T01:11:20;6.70;99.90
10336;DHT22;5213;53.548;9.930;2024-01-25T01:13:45;6.90;99.90
10336;DHT22;5213;53.548;9.930;2024-01-25T01:16:11;6.70;99.90
10336;DHT22;5213;53.548;9.930;2024-01-25T01:18:37;6.70;99.90
10336;DHT22;5213;53.548;9.930;2024-01-25T01:21:04;6.70;99.90
10336;DHT22;5213;53.548;9.930;2024-01-25T01:23:30;6.70;99.90
10336;DHT22;5213;53.548;9.930;2024-01-25T01:25:55;6.60;99.90
10336;DHT22;5213;53.548;9.930;2024-01-25T01:28:21;6.90;99.90
10336;DHT22;5213;53.548;9.930;2024-01-25T01:30:46;6.60;99.90
10336;DHT22;5213;53.548;9.930;2024-01-25T01:33:12;6.50;99.90
10336;DHT22;5213;53.548;9.930;2024-01-25T01:35:38;6.50;99.90
10336;DHT22;5213;53.548;9.930;2024-01-25T01:38:03;6.60;99.90
10336;DHT22;5213;53.548;9.930;2024-01-25T01:40:29;6.50;99.90
10336;DHT22;5213;53.548;9.930;2024-01-25T01:43:01;6.70;99.90
10336;DHT22;5213;53.548;9.930;2024-01-25T01:45:27;6.40;99.90
10336;DHT22;5213;53.548;9.930;2024-01-25T01:47:54;6.40;99.90
10336;DHT22;5213;53.548;9.930;2024-01-25T01:50:19;6.40;99.90
10336;DHT22;5213;53.548;9.930;2024-01-25T01:52:46;6.40;99.90
10336;DHT22;5213;53.548;9.930;2024-01-25T01:55:12;6.50;99.90
10336;DHT22;5213;53.548;9.930;2024-01-25T01:57:38;6.60;99.90
10336;DHT22;5213;53.548;9.930;2024-01-25T02:00:06;6.40;99.90
10336;DHT22;5213;53.548;9.930;2024-01-25T02:02:34;6.60;99.90
10336;DHT22;5213;53.548;9.930;2024-01-25T02:05:00;6.50;99.90
10336;DHT22;5213;53.548;9.930;2024-01-25T02:07:26;6.40;99.90
10336;DHT22;5213;53.548;9.930;2024-01-25T02:09:52;6.60;99.90
10336;DHT22;5213;53.548;9.930;2024-01-25T02:12:17;6.60;99.90
10336;DHT22;5213;53.548;9.930;2024-01-25T02:14:43;6.50;99.90
10336;DHT22;5213;53.548;9.930;2024-01-25T02:17:09;6.50;99.90
10336;DHT22;5213;53.548;9.930;2024-01-25T02:19:35;6.50;99.90
10336;DHT22;5213;53.548;9.930;2024-01-25T02:22:01;6.90;99.90
10336;DHT22;5213;53.548;9.930;2024-01-25T02:24:29;6.60;99.90
10336;DHT22;5213;53.548;9.930;2024-01-25T02:26:55;7.10;99.90
10336;DHT22;5213;53.548;9.930;2024-01-25T02:29:20;6.50;99.90
10336;DHT22;5213;53.548;9.930;2024-01-25T02:31:46;6.70;99.90
10336;DHT22;5213;53.548;9.930;2024-01-25T02:34:12;6.60;99.90
10336;DHT22;5213;53.548;9.930;2024-01-25T02:36:37;6.60;99.90
10336;DHT22;5213;53.548;9.930;2024-01-25T02:39:03;6.60;99.90
10336;DHT22;5213;53.548;9.930;2024-01-25T02:41:30;6.60;99.90
10336;DHT22;5213;53.548;9.930;2024-01-25T02:43:56;7.00;99.90
10336;DHT22;5213;53.548;9.930;2024-01-25T02:46:21;6.90;99.90
10336;DHT22;5213;53.548;9.930;2024-01-25T02:48:47;6.90;99.90
10336;DHT22;5213;53.548;9.930;2024-01-25T02:51:13;6.70;99.90
10336;DHT22;5213;53.548;9.930;2024-01-25T02:53:39;6.70;99.90
10336;DHT22;5213;53.548;9.930;2024-01-25T02:56:05;6.70;99.90
10336;DHT22;5213;53.548;9.930;2024-01-25T02:58:31;6.80;99.90
10336;DHT22;5213;53.548;9.930;2024-01-25T03:00:57;6.70;99.90
10336;DHT22;5213;53.548;9.930;2024-01-25T03:03:22;6.80;99.90
10336;DHT22;5213;53.548;9.930;2024-01-25T03:05:49;6.70;99.90
10336;DHT22;5213;53.548;9.930;2024-01-25T03:08:14;6.80;99.90
10336;DHT22;5213;53.548;9.930;2024-01-25T03:10:40;7.60;99.90
10336;DHT22;5213;53.548;9.930;2024-01-25T03:13:06;6.70;99.90
10336;DHT22;5213;53.548;9.930;2024-01-25T03:15:31;6.70;99.90
10336;DHT22;5213;53.548;9.930;2024-01-25T03:17:57;6.60;99.90
10336;DHT22;5213;53.548;9.930;2024-01-25T03:20:23;6.70;99.90
10336;DHT22;5213;53.548;9.930;2024-01-25T03:22:48;6.80;99.90
10336;DHT22;5213;53.548;9.930;2024-01-25T03:25:14;6.70;99.90
10336;DHT22;5213;53.548;9.930;2024-01-25T03:27:40;6.70;99.90
10336;DHT22;5213;53.548;9.930;2024-01-25T03:30:06;6.80;99.90
10336;DHT22;5213;53.548;9.930;2024-01-25T03:32:33;6.90;99.90
10336;DHT22;5213;53.548;9.930;2024-01-25T03:34:59;7.10;99.90
10336;DHT22;5213;53.548;9.930;2024-01-25T03:37:24;6.70;99.90
10336;DHT22;5213;53.548;9.930;2024-01-25T03:39:50;6.90;99.90
10336;DHT22;5213;53.548;9.930;2024-01-25T03:42:15;6.70;99.90
10336;DHT22;5213;53.548;9.930;2024-01-25T03:44:41;6.90;99.90
10336;DHT22;5213;53.548;9.930;2024-01-25T03:47:08;6.80;99.90
10336;DHT22;5213;53.548;9.930;2024-01-25T03:49:34;6.70;99.90
10336;DHT22;5213;53.548;9.930;2024-01-25T03:51:59;6.80;99.90
10336;DHT22;5213;53.548;9.930;2024-01-25T03:54:25;6.70;99.90
10336;DHT22;5213;53.548;9.930;2024-01-25T03:56:51;6.70;99.90
10336;DHT22;5213;53.548;9.930;2024-01-25T03:59:16;6.90;99.90
10336;DHT22;5213;53.548;9.930;2024-01-25T04:01:45;6.80;99.90
10336;DHT22;5213;53.548;9.930;2024-01-25T04:04:13;6.90;99.90
10336;DHT22;5213;53.548;9.930;2024-01-25T04:06:44;6.90;99.90
10336;DHT22;5213;53.548;9.930;2024-01-25T04:09:11;6.80;99.90
10336;DHT22;5213;53.548;9.930;2024-01-25T04:11:37;6.80;99.90
10336;DHT22;5213;53.548;9.930;2024-01-25T04:14:03;6.80;99.90
10336;DHT22;5213;53.548;9.930;2024-01-25T04:16:29;6.90;99.90
10336;DHT22;5213;53.548;9.930;2024-01-25T04:18:54;6.90;99.90
10336;DHT22;5213;53.548;9.930;2024-01-25T04:21:20;6.90;99.90
10336;DHT22;5213;53.548;9.930;2024-01-25T04:23:45;6.90;99.90
10336;DHT22;5213;53.548;9.930;2024-01-25T04:26:11;6.90;99.90
10336;DHT22;5213;53.548;9.930;2024-01-25T04:28:36;6.80;99.90
10336;DHT22;5213;53.548;9.930;2024-01-25T04:31:02;7.00;99.90
10336;DHT22;5213;53.548;9.930;2024-01-25T04:33:29;6.90;99.90
10336;DHT22;5213;53.548;9.930;2024-01-25T04:35:55;7.50;99.90
10336;DHT22;5213;53.548;9.930;2024-01-25T04:38:21;7.30;99.90
10336;DHT22;5213;53.548;9.930;2024-01-25T04:40:47;7.00;99.90
10336;DHT22;5213;53.548;9.930;2024-01-25T04:43:12;7.10;99.90
10336;DHT22;5213;53.548;9.930;2024-01-25T04:45:39;6.80;99.90
10336;DHT22;5213;53.548;9.930;2024-01-25T04:48:05;7.10;99.90
10336;DHT22;5213;53.548;9.930;2024-01-25T04:50:31;6.90;99.90
10336;DHT22;5213;53.548;9.930;2024-01-25T04:52:56;6.80;99.90
10336;DHT22;5213;53.548;9.930;2024-01-25T04:55:22;6.80;99.90
10336;DHT22;5213;53.548;9.930;2024-01-25T04:57:48;6.70;99.90
10336;DHT22;5213;53.548;9.930;2024-01-25T05:00:15;6.90;99.90
10336;DHT22;5213;53.548;9.930;2024-01-25T05:02:42;6.90;99.90
10336;DHT22;5213;53.548;9.930;2024-01-25T05:05:07;6.80;99.90
10336;DHT22;5213;53.548;9.930;2024-01-25T05:07:33;6.80;99.90
10336;DHT22;5213;53.548;9.930;2024-01-25T05:09:59;6.80;99.90
10336;DHT22;5213;53.548;9.930;2024-01-25T05:12:24;6.70;99.90
10336;DHT22;5213;53.548;9.930;2024-01-25T05:14:50;6.90;99.90
10336;DHT22;5213;53.548;9.930;2024-01-25T05:17:15;6.80;99.90
10336;DHT22;5213;53.548;9.930;2024-01-25T05:19:41;6.70;99.90
10336;DHT22;5213;53.548;9.930;2024-01-25T05:22:06;6.60;99.90
10336;DHT22;5213;53.548;9.930;2024-01-25T05:24:33;6.60;99.90
10336;DHT22;5213;53.548;9.930;2024-01-25T05:26:59;6.70;99.90
10336;DHT22;5213;53.548;9.930;2024-01-25T05:29:25;6.60;99.90
10336;DHT22;5213;53.548;9.930;2024-01-25T05:31:50;6.80;99.90
10336;DHT22;5213;53.548;9.930;2024-01-25T05:34:16;6.60;99.90
10336;DHT22;5213;53.548;9.930;2024-01-25T05:36:41;6.60;99.90
10336;DHT22;5213;53.548;9.930;2024-01-25T05:39:07;6.70;99.90
10336;DHT22;5213;53.548;9.930;2024-01-25T05:41:33;6.90;99.90
10336;DHT22;5213;53.548;9.930;2024-01-25T05:43:59;6.70;99.90
10336;DHT22;5213;53.548;9.930;2024-01-25T05:46:25;6.70;99.90
10336;DHT22;5213;53.548;9.930;2024-01-25T05:48:51;6.80;99.90
10336;DHT22;5213;53.548;9.930;2024-01-25T05:51:16;6.70;99.90
10336;DHT22;5213;53.548;9.930;2024-01-25T05:53:42;6.70;99.90
10336;DHT22;5213;53.548;9.930;2024-01-25T05:56:07;7.50;99.90
10336;DHT22;5213;53.548;9.930;2024-01-25T05:58:33;6.60;99.90
10336;DHT22;5213;53.548;9.930;2024-01-25T06:00:58;6.40;99.90
10336;DHT22;5213;53.548;9.930;2024-01-25T06:03:24;6.60;99.90
10336;DHT22;5213;53.548;9.930;2024-01-25T06:05:50;6.50;99.90
10336;DHT22;5213;53.548;9.930;2024-01-25T06:08:16;7.00;99.90
10336;DHT22;5213;53.548;9.930;2024-01-25T06:10:41;6.60;99.90
10336;DHT22;5213;53.548;9.930;2024-01-25T06:13:08;6.60;99.90
10336;DHT22;5213;53.548;9.930;2024-01-25T06:15:34;6.60;99.90
10336;DHT22;5213;53.548;9.930;2024-01-25T06:17:59;6.50;99.90
10336;DHT22;5213;53.548;9.930;2024-01-25T06:20:25;6.50;99.90
10336;DHT22;5213;53.548;9.930;2024-01-25T06:22:51;6.80;99.90
10336;DHT22;5213;53.548;9.930;2024-01-25T06:25:16;7.30;99.90
10336;DHT22;5213;53.548;9.930;2024-01-25T06:27:42;6.60;99.90
10336;DHT22;5213;53.548;9.930;2024-01-25T06:30:08;6.60;99.90
10336;DHT22;5213;53.548;9.930;2024-01-25T06:32:34;6.70;99.90
10336;DHT22;5213;53.548;9.930;2024-01-25T06:34:59;6.60;99.90
10336;DHT22;5213;53.548;9.930;2024-01-25T06:37:25;6.70;99.90
10336;DHT22;5213;53.548;9.930;2024-01-25T06:39:50;6.60;99.90
10336;DHT22;5213;53.548;9.930;2024-01-25T06:42:16;6.40;99.90
10336;DHT22;5213;53.548;9.930;2024-01-25T06:44:41;6.30;99.90
10336;DHT22;5213;53.548;9.930;2024-01-25T06:47:07;6.30;99.90
10336;DHT22;5213;53.548;9.930;2024-01-25T06:49:33;6.40;99.90
10336;DHT22;5213;53.548;9.930;2024-01-25T06:51:58;6.50;99.90
10336;DHT22;5213;53.548;9.930;2024-01-25T06:54:24;6.30;99.90
10336;DHT22;5213;53.548;9.930;2024-01-25T06:56:49;6.20;99.90
10336;DHT22;5213;53.548;9.930;2024-01-25T06:59:16;6.20;99.90
10336;DHT22;5213;53.548;9.930;2024-01-25T07:01:42;6.40;99.90
10336;DHT22;5213;53.548;9.930;2024-01-25T07:04:08;6.30;99.90
10336;DHT22;5213;53.548;9.930;2024-01-25T07:06:33;6.40;99.90
10336;DHT22;5213;53.548;9.930;2024-01-25T07:08:59;6.50;99.90
10336;DHT22;5213;53.548;9.930;2024-01-25T07:11:24;6.60;99.90
10336;DHT22;5213;53.548;9.930;2024-01-25T07:13:51;6.30;99.90
10336;DHT22;5213;53.548;9.930;2024-01-25T07:16:16;6.90;99.90
10336;DHT22;5213;53.548;9.930;2024-01-25T07:18:44;7.10;99.90
10336;DHT22;5213;53.548;9.930;2024-01-25T07:21:10;6.40;99.90
10336;DHT22;5213;53.548;9.930;2024-01-25T07:23:36;6.40;99.90
10336;DHT22;5213;53.548;9.930;2024-01-25T07:26:01;6.30;99.90
10336;DHT22;5213;53.548;9.930;2024-01-25T07:28:27;6.20;99.90
10336;DHT22;5213;53.548;9.930;2024-01-25T07:30:52;7.10;99.90
10336;DHT22;5213;53.548;9.930;2024-01-25T07:33:18;6.40;99.90
10336;DHT22;5213;53.548;9.930;2024-01-25T07:35:43;6.10;99.90
10336;DHT22;5213;53.548;9.930;2024-01-25T07:38:13;6.20;99.90
10336;DHT22;5213;53.548;9.930;2024-01-25T07:40:39;6.30;99.90
10336;DHT22;5213;53.548;9.930;2024-01-25T07:43:05;6.20;99.90
10336;DHT22;5213;53.548;9.930;2024-01-25T07:45:31;6.70;99.90
10336;DHT22;5213;53.548;9.930;2024-01-25T07:47:57;6.60;99.90
10336;DHT22;5213;53.548;9.930;2024-01-25T07:50:23;6.60;99.90
10336;DHT22;5213;53.548;9.930;2024-01-25T07:52:48;6.80;99.90
10336;DHT22;5213;53.548;9.930;2024-01-25T07:55:18;6.80;99.90
10336;DHT22;5213;53.548;9.930;2024-01-25T07:57:43;6.80;99.90
10336;DHT22;5213;53.548;9.930;2024-01-25T08:00:09;6.50;99.90
10336;DHT22;5213;53.548;9.930;2024-01-25T08:02:36;6.60;99.90
10336;DHT22;5213;53.548;9.930;2024-01-25T08:05:02;6.50;99.90
10336;DHT22;5213;53.548;9.930;2024-01-25T08:07:28;6.60;99.90
10336;DHT22;5213;53.548;9.930;2024-01-25T08:09:54;6.50;99.90
10336;DHT22;5213;53.548;9.930;2024-01-25T08:12:23;7.00;99.90
10336;DHT22;5213;53.548;9.930;2024-01-25T08:14:49;6.70;99.90
10336;DHT22;5213;53.548;9.930;2024-01-25T08:17:15;6.70;99.90
10336;DHT22;5213;53.548;9.930;2024-01-25T08:19:41;6.60;99.90
10336;DHT22;5213;53.548;9.930;2024-01-25T08:22:07;7.20;99.90
10336;DHT22;5213;53.548;9.930;2024-01-25T08:24:32;6.60;99.90
10336;DHT22;5213;53.548;9.930;2024-01-25T08:26:58;7.20;99.90
10336;DHT22;5213;53.548;9.930;2024-01-25T08:29:24;6.70;99.90
10336;DHT22;5213;53.548;9.930;2024-01-25T08:31:49;6.70;99.90
10336;DHT22;5213;53.548;9.930;2024-01-25T08:34:15;6.70;99.90
10336;DHT22;5213;53.548;9.930;2024-01-25T08:36:40;6.70;99.90
10336;DHT22;5213;53.548;9.930;2024-01-25T08:39:06;7.10;99.90
10336;DHT22;5213;53.548;9.930;2024-01-25T08:41:34;6.80;99.90
10336;DHT22;5213;53.548;9.930;2024-01-25T08:43:59;6.60;99.90
10336;DHT22;5213;53.548;9.930;2024-01-25T08:46:25;6.90;99.90
10336;DHT22;5213;53.548;9.930;2024-01-25T08:48:51;7.30;99.90
10336;DHT22;5213;53.548;9.930;2024-01-25T08:51:16;7.20;99.90
10336;DHT22;5213;53.548;9.930;2024-01-25T08:53:42;7.20;99.90
10336;DHT22;5213;53.548;9.930;2024-01-25T08:56:07;6.90;99.90
10336;DHT22;5213;53.548;9.930;2024-01-25T08:58:33;6.90;99.90
10336;DHT22;5213;53.548;9.930;2024-01-25T09:00:58;7.00;99.90
10336;DHT22;5213;53.548;9.930;2024-01-25T09:03:24;6.90;99.90
10336;DHT22;5213;53.548;9.930;2024-01-25T09:05:50;6.90;99.90
10336;DHT22;5213;53.548;9.930;2024-01-25T09:08:15;6.90;99.90
10336;DHT22;5213;53.548;9.930;2024-01-25T09:10:42;7.10;99.90
10336;DHT22;5213;53.548;9.930;2024-01-25T09:13:08;7.20;99.90
10336;DHT22;5213;53.548;9.930;2024-01-25T09:15:34;7.00;99.90
10336;DHT22;5213;53.548;9.930;2024-01-25T09:17:59;7.00;99.90
10336;DHT22;5213;53.548;9.930;2024-01-25T09:20:25;7.10;99.90
10336;DHT22;5213;53.548;9.930;2024-01-25T09:22:51;7.10;99.90
10336;DHT22;5213;53.548;9.930;2024-01-25T09:25:19;7.00;99.90
10336;DHT22;5213;53.548;9.930;2024-01-25T09:27:45;7.10;99.90
10336;DHT22;5213;53.548;9.930;2024-01-25T09:30:10;7.20;99.90
10336;DHT22;5213;53.548;9.930;2024-01-25T09:32:36;7.00;99.90
10336;DHT22;5213;53.548;9.930;2024-01-25T09:35:02;7.40;99.90
10336;DHT22;5213;53.548;9.930;2024-01-25T09:37:27;7.20;99.90
10336;DHT22;5213;53.548;9.930;2024-01-25T09:39:53;7.00;99.90
10336;DHT22;5213;53.548;9.930;2024-01-25T09:42:19;7.20;99.90
10336;DHT22;5213;53.548;9.930;2024-01-25T09:44:44;7.20;99.90
10336;DHT22;5213;53.548;9.930;2024-01-25T09:47:11;7.20;99.90
10336;DHT22;5213;53.548;9.930;2024-01-25T09:49:37;7.10;99.90
10336;DHT22;5213;53.548;9.930;2024-01-25T09:52:04;7.40;99.90
10336;DHT22;5213;53.548;9.930;2024-01-25T09:54:35;7.30;99.90
10336;DHT22;5213;53.548;9.930;2024-01-25T09:57:06;7.30;99.90
10336;DHT22;5213;53.548;9.930;2024-01-25T09:59:32;7.30;99.90
10336;DHT22;5213;53.548;9.930;2024-01-25T10:01:58;7.20;99.90
10336;DHT22;5213;53.548;9.930;2024-01-25T10:04:24;7.60;99.90
10336;DHT22;5213;53.548;9.930;2024-01-25T10:06:50;7.40;99.90
10336;DHT22;5213;53.548;9.930;2024-01-25T10:09:16;7.10;99.90
10336;DHT22;5213;53.548;9.930;2024-01-25T10:11:42;7.40;99.90
10336;DHT22;5213;53.548;9.930;2024-01-25T10:14:07;7.20;99.90
10336;DHT22;5213;53.548;9.930;2024-01-25T10:16:34;7.20;99.90
10336;DHT22;5213;53.548;9.930;2024-01-25T10:19:01;7.20;99.90
10336;DHT22;5213;53.548;9.930;2024-01-25T10:21:28;7.40;99.90
10336;DHT22;5213;53.548;9.930;2024-01-25T10:23:55;7.20;99.90
10336;DHT22;5213;53.548;9.930;2024-01-25T10:26:26;7.10;99.90
10336;DHT22;5213;53.548;9.930;2024-01-25T10:28:53;7.10;99.90
10336;DHT22;5213;53.548;9.930;2024-01-25T10:31:22;7.00;99.90
10336;DHT22;5213;53.548;9.930;2024-01-25T10:33:47;7.20;99.90
10336;DHT22;5213;53.548;9.930;2024-01-25T10:36:13;7.20;99.90
10336;DHT22;5213;53.548;9.930;2024-01-25T10:38:40;7.20;99.90
10336;DHT22;5213;53.548;9.930;2024-01-25T10:41:07;7.60;99.90
10336;DHT22;5213;53.548;9.930;2024-01-25T10:43:33;7.30;99.90
10336;DHT22;5213;53.548;9.930;2024-01-25T10:45:59;7.40;99.90
10336;DHT22;5213;53.548;9.930;2024-01-25T10:48:26;7.40;99.90
10336;DHT22;5213;53.548;9.930;2024-01-25T10:50:53;7.40;99.90
10336;DHT22;5213;53.548;9.930;2024-01-25T10:53:19;7.50;99.90
10336;DHT22;5213;53.548;9.930;2024-01-25T10:55:45;7.50;99.90
10336;DHT22;5213;53.548;9.930;2024-01-25T10:58:18;7.50;99.90
10336;DHT22;5213;53.548;9.930;2024-01-25T11:01:08;7.50;99.90
10336;DHT22;5213;53.548;9.930;2024-01-25T11:03:36;7.40;99.90
10336;DHT22;5213;53.548;9.930;2024-01-25T11:06:06;7.90;99.90
10336;DHT22;5213;53.548;9.930;2024-01-25T11:08:33;7.70;99.90
10336;DHT22;5213;53.548;9.930;2024-01-25T11:10:59;7.60;99.90
10336;DHT22;5213;53.548;9.930;2024-01-25T11:13:26;7.50;99.90
10336;DHT22;5213;53.548;9.930;2024-01-25T11:15:52;7.50;99.90
10336;DHT22;5213;53.548;9.930;2024-01-25T11:18:18;7.50;99.90
10336;DHT22;5213;53.548;9.930;2024-01-25T11:20:47;7.50;99.90
10336;DHT22;5213;53.548;9.930;2024-01-25T11:23:16;7.70;99.90
10336;DHT22;5213;53.548;9.930;2024-01-25T11:25:44;7.50;99.90
10336;DHT22;5213;53.548;9.930;2024-01-25T11:28:11;7.50;99.90
10336;DHT22;5213;53.548;9.930;2024-01-25T11:30:39;7.60;99.90
10336;DHT22;5213;53.548;9.930;2024-01-25T11:33:07;7.70;99.90
10336;DHT22;5213;53.548;9.930;2024-01-25T11:35:33;8.10;99.90
10336;DHT22;5213;53.548;9.930;2024-01-25T11:37:58;7.50;99.90
10336;DHT22;5213;53.548;9.930;2024-01-25T11:40:36;7.70;99.90
10336;DHT22;5213;53.548;9.930;2024-01-25T11:43:02;7.80;99.90
10336;DHT22;5213;53.548;9.930;2024-01-25T11:45:32;7.80;99.90
10336;DHT22;5213;53.548;9.930;2024-01-25T11:47:57;7.80;99.90
10336;DHT22;5213;53.548;9.930;2024-01-25T11:50:23;7.50;99.90
10336;DHT22;5213;53.548;9.930;2024-01-25T11:52:48;8.00;99.90
10336;DHT22;5213;53.548;9.930;2024-01-25T11:55:15;7.60;99.90
10336;DHT22;5213;53.548;9.930;2024-01-25T11:57:41;7.60;99.90
10336;DHT22;5213;53.548;9.930;2024-01-25T12:00:09;8.10;99.90
10336;DHT22;5213;53.548;9.930;2024-01-25T12:02:36;7.70;99.90
10336;DHT22;5213;53.548;9.930;2024-01-25T12:05:05;8.10;99.90
10336;DHT22;5213;53.548;9.930;2024-01-25T12:07:31;7.80;93.30
10336;DHT22;5213;53.548;9.930;2024-01-25T12:10:03;8.20;99.90
10336;DHT22;5213;53.548;9.930;2024-01-25T12:12:29;8.10;83.60
10336;DHT22;5213;53.548;9.930;2024-01-25T12:15:04;8.30;71.40
10336;DHT22;5213;53.548;9.930;2024-01-25T12:17:30;8.00;73.20
10336;DHT22;5213;53.548;9.930;2024-01-25T12:19:59;7.80;99.90
10336;DHT22;5213;53.548;9.930;2024-01-25T12:22:27;7.60;99.90
10336;DHT22;5213;53.548;9.930;2024-01-25T12:24:54;7.40;99.90
10336;DHT22;5213;53.548;9.930;2024-01-25T12:27:21;7.90;99.90
10336;DHT22;5213;53.548;9.930;2024-01-25T12:29:47;7.50;99.90
10336;DHT22;5213;53.548;9.930;2024-01-25T12:32:13;7.50;99.90
10336;DHT22;5213;53.548;9.930;2024-01-25T12:34:39;7.50;99.90
10336;DHT22;5213;53.548;9.930;2024-01-25T12:37:07;7.40;99.90
10336;DHT22;5213;53.548;9.930;2024-01-25T12:39:32;7.30;99.90
10336;DHT22;5213;53.548;9.930;2024-01-25T12:41:58;7.40;99.90
10336;DHT22;5213;53.548;9.930;2024-01-25T12:44:24;7.50;99.90
10336;DHT22;5213;53.548;9.930;2024-01-25T12:46:50;7.50;99.90
10336;DHT22;5213;53.548;9.930;2024-01-25T12:49:17;7.60;99.90
10336;DHT22;5213;53.548;9.930;2024-01-25T12:51:42;7.50;99.90
10336;DHT22;5213;53.548;9.930;2024-01-25T12:54:09;7.60;99.90
10336;DHT22;5213;53.548;9.930;2024-01-25T12:56:34;7.90;97.70
10336;DHT22;5213;53.548;9.930;2024-01-25T12:59:00;7.70;94.60
10336;DHT22;5213;53.548;9.930;2024-01-25T13:01:26;7.60;87.50
10336;DHT22;5213;53.548;9.930;2024-01-25T13:03:52;7.90;94.20
10336;DHT22;5213;53.548;9.930;2024-01-25T13:06:18;7.60;96.50
10336;DHT22;5213;53.548;9.930;2024-01-25T13:08:43;7.60;95.30
10336;DHT22;5213;53.548;9.930;2024-01-25T13:11:10;7.60;92.90
10336;DHT22;5213;53.548;9.930;2024-01-25T13:13:35;7.60;90.80
10336;DHT22;5213;53.548;9.930;2024-01-25T13:16:01;7.70;94.50
10336;DHT22;5213;53.548;9.930;2024-01-25T13:18:26;7.60;93.50
10336;DHT22;5213;53.548;9.930;2024-01-25T13:20:52;7.70;91.20
10336;DHT22;5213;53.548;9.930;2024-01-25T13:23:18;7.50;82.70
10336;DHT22;5213;53.548;9.930;2024-01-25T13:25:43;7.90;88.50
10336;DHT22;5213;53.548;9.930;2024-01-25T13:28:09;7.70;82.80
10336;DHT22;5213;53.548;9.930;2024-01-25T13:30:34;8.60;74.10
10336;DHT22;5213;53.548;9.930;2024-01-25T13:33:00;7.80;64.60
10336;DHT22;5213;53.548;9.930;2024-01-25T13:35:25;8.30;82.60
10336;DHT22;5213;53.548;9.930;2024-01-25T13:37:51;7.80;38.90
10336;DHT22;5213;53.548;9.930;2024-01-25T13:40:17;8.00;28.10
10336;DHT22;5213;53.548;9.930;2024-01-25T13:42:42;8.60;1.00
10336;DHT22;5213;53.548;9.930;2024-01-25T13:45:09;8.50;1.00
10336;DHT22;5213;53.548;9.930;2024-01-25T13:47:35;8.30;1.00
10336;DHT22;5213;53.548;9.930;2024-01-25T13:50:00;8.40;1.00
10336;DHT22;5213;53.548;9.930;2024-01-25T13:52:26;8.80;1.00
10336;DHT22;5213;53.548;9.930;2024-01-25T13:54:52;8.60;1.00
10336;DHT22;5213;53.548;9.930;2024-01-25T13:57:17;8.70;1.00
10336;DHT22;5213;53.548;9.930;2024-01-25T13:59:45;9.00;1.00
10336;DHT22;5213;53.548;9.930;2024-01-25T14:02:11;8.90;1.00
10336;DHT22;5213;53.548;9.930;2024-01-25T14:04:38;8.90;1.00
10336;DHT22;5213;53.548;9.930;2024-01-25T14:07:03;9.00;1.00
10336;DHT22;5213;53.548;9.930;2024-01-25T14:09:29;9.20;1.00
10336;DHT22;5213;53.548;9.930;2024-01-25T14:11:55;9.60;1.00
10336;DHT22;5213;53.548;9.930;2024-01-25T14:14:20;9.80;1.00
10336;DHT22;5213;53.548;9.930;2024-01-25T14:16:46;9.60;1.00
10336;DHT22;5213;53.548;9.930;2024-01-25T14:19:11;9.40;1.00
10336;DHT22;5213;53.548;9.930;2024-01-25T14:21:37;9.00;1.00
10336;DHT22;5213;53.548;9.930;2024-01-25T14:24:03;9.40;1.00
10336;DHT22;5213;53.548;9.930;2024-01-25T14:26:28;9.10;1.00
10336;DHT22;5213;53.548;9.930;2024-01-25T14:28:54;9.30;1.00
10336;DHT22;5213;53.548;9.930;2024-01-25T14:31:19;9.40;1.00
10336;DHT22;5213;53.548;9.930;2024-01-25T14:33:45;8.80;1.00
10336;DHT22;5213;53.548;9.930;2024-01-25T14:36:11;8.80;1.00
10336;DHT22;5213;53.548;9.930;2024-01-25T14:38:37;8.70;1.00
10336;DHT22;5213;53.548;9.930;2024-01-25T14:41:03;8.90;1.00
10336;DHT22;5213;53.548;9.930;2024-01-25T14:43:28;8.70;1.00
10336;DHT22;5213;53.548;9.930;2024-01-25T14:45:54;8.60;1.00
10336;DHT22;5213;53.548;9.930;2024-01-25T14:48:19;8.30;1.00
10336;DHT22;5213;53.548;9.930;2024-01-25T14:50:45;8.40;1.00
10336;DHT22;5213;53.548;9.930;2024-01-25T14:53:11;8.20;1.00
10336;DHT22;5213;53.548;9.930;2024-01-25T14:55:37;8.30;1.00
10336;DHT22;5213;53.548;9.930;2024-01-25T14:58:02;8.30;1.00
10336;DHT22;5213;53.548;9.930;2024-01-25T15:00:28;8.20;1.00
10336;DHT22;5213;53.548;9.930;2024-01-25T15:02:54;8.20;1.00
10336;DHT22;5213;53.548;9.930;2024-01-25T15:05:21;8.30;1.00
10336;DHT22;5213;53.548;9.930;2024-01-25T15:07:47;8.00;1.00
10336;DHT22;5213;53.548;9.930;2024-01-25T15:10:12;7.80;1.00
10336;DHT22;5213;53.548;9.930;2024-01-25T15:12:38;7.80;1.00
10336;DHT22;5213;53.548;9.930;2024-01-25T15:15:05;7.70;1.00
10336;DHT22;5213;53.548;9.930;2024-01-25T15:17:31;7.70;1.00
10336;DHT22;5213;53.548;9.930;2024-01-25T15:19:56;7.50;1.00
10336;DHT22;5213;53.548;9.930;2024-01-25T15:22:22;7.60;1.00
10336;DHT22;5213;53.548;9.930;2024-01-25T15:24:51;7.50;1.00
10336;DHT22;5213;53.548;9.930;2024-01-25T15:27:16;7.40;1.00
10336;DHT22;5213;53.548;9.930;2024-01-25T15:29:42;7.50;1.00
10336;DHT22;5213;53.548;9.930;2024-01-25T15:32:07;7.10;1.00
10336;DHT22;5213;53.548;9.930;2024-01-25T15:34:33;7.10;1.00
10336;DHT22;5213;53.548;9.930;2024-01-25T15:36:58;6.90;1.00
10336;DHT22;5213;53.548;9.930;2024-01-25T15:39:24;7.00;1.00
10336;DHT22;5213;53.548;9.930;2024-01-25T15:41:50;6.80;1.00
10336;DHT22;5213;53.548;9.930;2024-01-25T15:44:17;6.80;1.00
10336;DHT22;5213;53.548;9.930;2024-01-25T15:46:43;6.70;1.00
10336;DHT22;5213;53.548;9.930;2024-01-25T15:49:09;7.10;1.00
10336;DHT22;5213;53.548;9.930;2024-01-25T15:51:35;6.70;1.00
10336;DHT22;5213;53.548;9.930;2024-01-25T15:54:01;7.10;1.00
10336;DHT22;5213;53.548;9.930;2024-01-25T15:56:26;6.70;1.00